createdAt,value
2022-09-02T00:00:08.813Z,24.66
2022-09-02T00:01:07.516Z,24.64
2022-09-02T00:02:08.344Z,24.62
2022-09-02T00:03:07.673Z,24.61
2022-09-02T00:04:07.432Z,24.60
2022-09-02T00:05:08.363Z,24.59
2022-09-02T00:06:12.951Z,24.56
2022-09-02T00:07:07.394Z,24.58
2022-09-02T00:08:07.884Z,24.59
2022-09-02T00:09:07.544Z,24.57
2022-09-02T00:10:07.245Z,24.60
2022-09-02T00:11:07.670Z,24.58
2022-09-02T00:12:07.297Z,24.57
2022-09-02T00:13:07.655Z,24.55
2022-09-02T00:14:07.132Z,24.54
2022-09-02T00:15:07.886Z,24.55
2022-09-02T00:16:08.152Z,24.52
2022-09-02T00:17:07.389Z,24.48
2022-09-02T00:18:08.485Z,24.48
2022-09-02T00:19:07.438Z,24.45
2022-09-02T00:20:07.428Z,24.44
2022-09-02T00:21:07.099Z,24.41
2022-09-02T00:22:07.683Z,24.39
2022-09-02T00:23:07.342Z,24.39
2022-09-02T00:24:07.152Z,24.37
2022-09-02T00:25:07.717Z,24.37
2022-09-02T00:26:07.203Z,24.38
2022-09-02T00:27:07.614Z,24.37
2022-09-02T00:28:07.218Z,24.33
2022-09-02T00:29:07.847Z,24.33
2022-09-02T00:30:07.742Z,24.34
2022-09-02T00:31:07.416Z,24.35
2022-09-02T00:32:08.053Z,24.31
2022-09-02T00:33:07.970Z,24.28
2022-09-02T00:34:07.331Z,24.26
2022-09-02T00:35:08.030Z,24.27
2022-09-02T00:36:07.657Z,24.25
2022-09-02T00:37:07.324Z,24.25
2022-09-02T00:38:07.677Z,24.24
2022-09-02T00:39:07.181Z,24.25
2022-09-02T00:40:07.710Z,24.26
2022-09-02T00:41:07.167Z,24.23
2022-09-02T00:42:07.482Z,24.21
2022-09-02T00:43:07.711Z,24.21
2022-09-02T00:44:07.341Z,24.23
2022-09-02T00:45:07.849Z,24.22
2022-09-02T00:46:07.271Z,24.20
2022-09-02T00:47:07.601Z,24.19
2022-09-02T00:48:07.038Z,24.20
2022-09-02T00:49:07.255Z,24.17
2022-09-02T00:50:07.760Z,24.17
2022-09-02T00:51:07.459Z,24.14
2022-09-02T00:52:07.059Z,24.15
2022-09-02T00:53:07.447Z,24.15
2022-09-02T00:54:07.525Z,24.12
2022-09-02T00:55:07.519Z,24.12
2022-09-02T00:56:06.893Z,24.14
2022-09-02T00:57:07.128Z,24.13
2022-09-02T00:58:09.401Z,24.12
2022-09-02T00:59:07.247Z,24.13
2022-09-02T01:00:08.355Z,24.15
2022-09-02T01:01:07.398Z,24.17
2022-09-02T01:02:07.923Z,24.18
2022-09-02T01:03:07.622Z,24.15
2022-09-02T01:04:07.174Z,24.17
2022-09-02T01:05:07.961Z,24.20
2022-09-02T01:06:07.173Z,24.21
2022-09-02T01:07:07.601Z,24.18
2022-09-02T01:08:07.798Z,24.19
2022-09-02T01:09:07.406Z,24.19
2022-09-02T01:10:07.790Z,24.20
2022-09-02T01:11:07.386Z,24.20
2022-09-02T01:12:07.367Z,24.19
2022-09-02T01:13:07.712Z,24.19
2022-09-02T01:14:07.231Z,24.19
2022-09-02T01:15:07.831Z,24.19
2022-09-02T01:16:07.105Z,24.18
2022-09-02T01:17:07.569Z,24.20
2022-09-02T01:18:07.443Z,24.18
2022-09-02T01:19:07.799Z,24.17
2022-09-02T01:20:07.582Z,24.15
2022-09-02T01:21:07.244Z,24.13
2022-09-02T01:22:07.368Z,24.06
2022-09-02T01:23:07.662Z,24.02
2022-09-02T01:24:07.160Z,23.98
2022-09-02T01:25:07.521Z,23.97
2022-09-02T01:26:07.818Z,23.93
2022-09-02T01:27:07.351Z,23.93
2022-09-02T01:28:07.726Z,23.89
2022-09-02T01:29:07.388Z,23.86
2022-09-02T01:30:07.767Z,23.86
2022-09-02T01:31:07.299Z,23.81
2022-09-02T01:32:07.841Z,23.74
2022-09-02T01:33:07.255Z,23.68
2022-09-02T01:34:07.395Z,23.65
2022-09-02T01:35:07.911Z,23.63
2022-09-02T01:36:07.120Z,23.60
2022-09-02T01:37:07.500Z,23.57
2022-09-02T01:38:07.434Z,23.55
2022-09-02T01:39:07.539Z,23.54
2022-09-02T01:40:07.966Z,23.56
2022-09-02T01:41:07.055Z,23.54
2022-09-02T01:42:07.278Z,23.54
2022-09-02T01:43:07.729Z,23.54
2022-09-02T01:44:07.777Z,23.52
2022-09-02T01:45:07.545Z,23.52
2022-09-02T01:46:07.187Z,23.47
2022-09-02T01:47:07.707Z,23.51
2022-09-02T01:48:07.342Z,23.45
2022-09-02T01:49:07.553Z,23.38
2022-09-02T01:50:07.619Z,23.35
2022-09-02T01:51:07.858Z,23.28
2022-09-02T01:52:07.231Z,23.24
2022-09-02T01:53:07.770Z,23.25
2022-09-02T01:54:07.113Z,23.24
2022-09-02T01:55:07.495Z,23.26
2022-09-02T01:56:07.677Z,23.26
2022-09-02T01:57:07.710Z,23.23
2022-09-02T01:58:07.035Z,23.23
2022-09-02T01:59:07.180Z,23.26
2022-09-02T02:00:08.265Z,23.25
2022-09-02T02:01:07.562Z,23.29
2022-09-02T02:02:07.803Z,23.29
2022-09-02T02:03:07.312Z,23.29
2022-09-02T02:04:12.727Z,23.29
2022-09-02T02:05:07.216Z,23.25
2022-09-02T02:06:07.477Z,23.23
2022-09-02T02:07:07.409Z,23.24
2022-09-02T02:08:07.783Z,23.22
2022-09-02T02:09:07.224Z,23.27
2022-09-02T02:10:07.555Z,23.29
2022-09-02T02:11:07.767Z,23.29
2022-09-02T02:12:07.285Z,23.30
2022-09-02T02:13:07.493Z,23.31
2022-09-02T02:14:07.356Z,23.35
2022-09-02T02:15:07.912Z,23.33
2022-09-02T02:16:07.653Z,23.34
2022-09-02T02:17:07.257Z,23.33
2022-09-02T02:18:07.409Z,23.32
2022-09-02T02:19:07.371Z,23.32
2022-09-02T02:20:07.835Z,23.33
2022-09-02T02:21:07.189Z,23.36
2022-09-02T02:22:07.506Z,23.38
2022-09-02T02:23:07.627Z,23.36
2022-09-02T02:24:07.290Z,23.37
2022-09-02T02:25:07.475Z,23.37
2022-09-02T02:26:07.739Z,23.38
2022-09-02T02:27:07.369Z,23.39
2022-09-02T02:28:07.349Z,23.38
2022-09-02T02:29:07.289Z,23.40
2022-09-02T02:30:08.042Z,23.43
2022-09-02T02:31:07.397Z,23.44
2022-09-02T02:32:07.518Z,23.46
2022-09-02T02:33:12.511Z,23.46
2022-09-02T02:34:07.811Z,23.47
2022-09-02T02:35:07.204Z,23.48
2022-09-02T02:36:07.276Z,23.5
2022-09-02T02:37:07.501Z,23.5
2022-09-02T02:38:07.672Z,23.5
2022-09-02T02:39:07.408Z,23.5
2022-09-02T02:40:07.505Z,23.49
2022-09-02T02:41:07.134Z,23.47
2022-09-02T02:42:07.417Z,23.48
2022-09-02T02:43:07.181Z,23.49
2022-09-02T02:44:07.533Z,23.51
2022-09-02T02:45:08.058Z,23.49
2022-09-02T02:46:07.884Z,23.49
2022-09-02T02:47:07.545Z,23.49
2022-09-02T02:48:07.567Z,23.46
2022-09-02T02:49:07.648Z,23.43
2022-09-02T02:50:07.746Z,23.40
2022-09-02T02:51:07.261Z,23.40
2022-09-02T02:52:07.598Z,23.38
2022-09-02T02:53:07.111Z,23.37
2022-09-02T02:54:07.266Z,23.36
2022-09-02T02:55:07.535Z,23.36
2022-09-02T02:56:07.137Z,23.35
2022-09-02T02:57:07.556Z,23.35
2022-09-02T02:58:07.694Z,23.30
2022-09-02T02:59:07.935Z,23.30
2022-09-02T03:00:07.891Z,23.30
2022-09-02T03:01:07.517Z,23.29
2022-09-02T03:02:08.095Z,23.30
2022-09-02T03:03:07.796Z,23.31
2022-09-02T03:04:07.218Z,23.25
2022-09-02T03:05:26.822Z,23.24
2022-09-02T03:06:07.323Z,23.23
2022-09-02T03:07:07.724Z,23.19
2022-09-02T03:08:07.461Z,23.18
2022-09-02T03:09:07.807Z,23.20
2022-09-02T03:10:07.554Z,23.20
2022-09-02T03:11:08.246Z,23.20
2022-09-02T03:12:07.754Z,23.20
2022-09-02T03:13:07.362Z,23.19
2022-09-02T03:14:07.640Z,23.18
2022-09-02T03:15:07.458Z,23.14
2022-09-02T03:16:07.919Z,23.17
2022-09-02T03:17:07.111Z,23.17
2022-09-02T03:18:07.500Z,23.14
2022-09-02T03:19:07.687Z,23.15
2022-09-02T03:20:07.395Z,23.14
2022-09-02T03:21:07.627Z,23.12
2022-09-02T03:22:07.077Z,23.11
2022-09-02T03:23:07.357Z,23.10
2022-09-02T03:24:07.708Z,23.10
2022-09-02T03:25:07.274Z,23.09
2022-09-02T03:26:07.629Z,23.10
2022-09-02T03:27:07.023Z,23.12
2022-09-02T03:28:07.393Z,23.10
2022-09-02T03:29:07.492Z,23.11
2022-09-02T03:30:08.005Z,23.11
2022-09-02T03:32:07.315Z,23.06
2022-09-02T03:33:07.226Z,23.05
2022-09-02T03:34:07.696Z,23.04
2022-09-02T03:35:07.969Z,23.04
2022-09-02T03:36:07.465Z,23.05
2022-09-02T03:37:07.719Z,23.02
2022-09-02T03:38:07.721Z,23.02
2022-09-02T03:39:09.931Z,23
2022-09-02T03:40:07.685Z,22.96
2022-09-02T03:41:07.382Z,22.95
2022-09-02T03:42:07.565Z,22.94
2022-09-02T03:43:07.482Z,22.93
2022-09-02T03:44:07.874Z,22.91
2022-09-02T03:45:07.772Z,22.92
2022-09-02T03:46:07.624Z,22.92
2022-09-02T03:47:07.548Z,22.92
2022-09-02T03:48:07.829Z,22.90
2022-09-02T03:49:07.535Z,22.89
2022-09-02T03:50:07.980Z,22.89
2022-09-02T03:51:07.605Z,22.87
2022-09-02T03:52:07.955Z,22.88
2022-09-02T03:53:07.360Z,22.86
2022-09-02T03:54:07.600Z,22.85
2022-09-02T03:55:07.861Z,22.84
2022-09-02T03:56:07.315Z,22.82
2022-09-02T03:57:07.392Z,22.80
2022-09-02T03:58:08.720Z,22.81
2022-09-02T03:59:07.670Z,22.80
2022-09-02T04:00:08.390Z,22.80
2022-09-02T04:01:07.482Z,22.80
2022-09-02T04:02:07.495Z,22.80
2022-09-02T04:03:07.635Z,22.80
2022-09-02T04:04:07.204Z,22.81
2022-09-02T04:05:13.730Z,22.81
2022-09-02T04:06:07.372Z,22.79
2022-09-02T04:07:07.460Z,22.76
2022-09-02T04:08:07.555Z,22.76
2022-09-02T04:09:07.856Z,22.75
2022-09-02T04:10:07.569Z,22.72
2022-09-02T04:11:07.401Z,22.71
2022-09-02T04:12:07.744Z,22.71
2022-09-02T04:13:07.646Z,22.69
2022-09-02T04:14:07.618Z,22.68
2022-09-02T04:15:07.976Z,22.68
2022-09-02T04:16:07.808Z,22.68
2022-09-02T04:17:07.467Z,22.68
2022-09-02T04:18:07.377Z,22.69
2022-09-02T04:19:07.832Z,22.69
2022-09-02T04:20:07.521Z,22.69
2022-09-02T04:21:07.855Z,22.67
2022-09-02T04:22:07.192Z,22.65
2022-09-02T04:23:07.643Z,22.65
2022-09-02T04:24:07.442Z,22.64
2022-09-02T04:25:07.545Z,22.62
2022-09-02T04:26:07.322Z,22.62
2022-09-02T04:27:07.661Z,22.59
2022-09-02T04:28:07.243Z,22.56
2022-09-02T04:29:07.533Z,22.56
2022-09-02T04:30:07.320Z,22.55
2022-09-02T04:31:07.836Z,22.55
2022-09-02T04:32:07.386Z,22.55
2022-09-02T04:33:07.561Z,22.55
2022-09-02T04:34:07.779Z,22.51
2022-09-02T04:35:07.796Z,22.50
2022-09-02T04:36:07.358Z,22.5
2022-09-02T04:37:07.835Z,22.49
2022-09-02T04:38:07.490Z,22.47
2022-09-02T04:39:07.716Z,22.47
2022-09-02T04:40:07.361Z,22.45
2022-09-02T04:41:07.290Z,22.45
2022-09-02T04:42:08.055Z,22.45
2022-09-02T04:43:07.472Z,22.45
2022-09-02T04:44:07.926Z,22.42
2022-09-02T04:45:07.425Z,22.40
2022-09-02T04:46:07.342Z,22.37
2022-09-02T04:47:07.394Z,22.36
2022-09-02T04:48:07.801Z,22.34
2022-09-02T04:49:07.312Z,22.32
2022-09-02T04:50:07.860Z,22.33
2022-09-02T04:51:07.458Z,22.33
2022-09-02T04:52:07.305Z,22.33
2022-09-02T04:53:07.758Z,22.33
2022-09-02T04:54:06.994Z,22.33
2022-09-02T04:55:07.404Z,22.33
2022-09-02T04:56:07.408Z,22.33
2022-09-02T04:57:07.418Z,22.35
2022-09-02T04:58:08.136Z,22.38
2022-09-02T04:59:07.979Z,22.35
2022-09-02T05:00:13.304Z,22.33
2022-09-02T05:01:07.231Z,22.31
2022-09-02T05:02:07.815Z,22.30
2022-09-02T05:03:07.498Z,22.29
2022-09-02T05:04:07.692Z,22.28
2022-09-02T05:05:07.385Z,22.29
2022-09-02T05:06:07.694Z,22.28
2022-09-02T05:07:07.305Z,22.28
2022-09-02T05:08:07.907Z,22.28
2022-09-02T05:09:07.550Z,22.29
2022-09-02T05:10:07.888Z,22.29
2022-09-02T05:11:07.516Z,22.30
2022-09-02T05:12:07.764Z,22.30
2022-09-02T05:13:07.395Z,22.31
2022-09-02T05:14:07.843Z,22.32
2022-09-02T05:15:07.633Z,22.33
2022-09-02T05:16:07.336Z,22.34
2022-09-02T05:17:08.068Z,22.36
2022-09-02T05:18:07.588Z,22.37
2022-09-02T05:19:07.491Z,22.39
2022-09-02T05:20:08.195Z,22.39
2022-09-02T05:21:07.648Z,22.39
2022-09-02T05:22:07.193Z,22.38
2022-09-02T05:23:07.553Z,22.37
2022-09-02T05:24:07.751Z,22.38
2022-09-02T05:25:07.701Z,22.37
2022-09-02T05:26:07.522Z,22.36
2022-09-02T05:27:07.489Z,22.37
2022-09-02T05:28:07.704Z,22.36
2022-09-02T05:29:07.240Z,22.37
2022-09-02T05:30:08.246Z,22.37
2022-09-02T05:31:07.638Z,22.39
2022-09-02T05:32:07.322Z,22.37
2022-09-02T05:33:07.658Z,22.35
2022-09-02T05:34:07.629Z,22.34
2022-09-02T05:35:07.713Z,22.33
2022-09-02T05:36:07.270Z,22.32
2022-09-02T05:37:07.543Z,22.32
2022-09-02T05:38:07.377Z,22.31
2022-09-02T05:39:07.372Z,22.31
2022-09-02T05:40:07.960Z,22.31
2022-09-02T05:41:07.594Z,22.36
2022-09-02T05:42:08.056Z,22.35
2022-09-02T05:43:07.475Z,22.36
2022-09-02T05:44:07.146Z,22.38
2022-09-02T05:45:07.809Z,22.38
2022-09-02T05:46:07.375Z,22.39
2022-09-02T05:47:08.043Z,22.39
2022-09-02T05:48:07.517Z,22.39
2022-09-02T05:49:07.923Z,22.40
2022-09-02T05:50:07.856Z,22.43
2022-09-02T05:51:07.679Z,22.44
2022-09-02T05:52:07.644Z,22.45
2022-09-02T05:53:12.290Z,22.46
2022-09-02T05:54:07.492Z,22.47
2022-09-02T05:55:07.881Z,22.45
2022-09-02T05:56:07.634Z,22.45
2022-09-02T05:57:07.192Z,22.45
2022-09-02T05:58:07.403Z,22.45
2022-09-02T05:59:07.471Z,22.42
2022-09-02T06:00:08.567Z,22.42
2022-09-02T06:01:07.918Z,22.40
2022-09-02T06:02:07.593Z,22.39
2022-09-02T06:03:07.556Z,22.39
2022-09-02T06:04:07.476Z,22.38
2022-09-02T06:05:07.858Z,22.37
2022-09-02T06:06:07.744Z,22.36
2022-09-02T06:07:07.448Z,22.35
2022-09-02T06:08:07.872Z,22.36
2022-09-02T06:09:07.974Z,22.35
2022-09-02T06:10:08.043Z,22.36
2022-09-02T06:11:07.954Z,22.35
2022-09-02T06:12:07.491Z,22.36
2022-09-02T06:13:07.290Z,22.33
2022-09-02T06:14:07.842Z,22.32
2022-09-02T06:15:07.809Z,22.34
2022-09-02T06:16:07.921Z,22.34
2022-09-02T06:17:08.115Z,22.35
2022-09-02T06:18:08.052Z,22.35
2022-09-02T06:19:07.475Z,22.35
2022-09-02T06:20:07.996Z,22.33
2022-09-02T06:21:07.676Z,22.34
2022-09-02T06:22:07.259Z,22.37
2022-09-02T06:23:07.669Z,22.39
2022-09-02T06:24:07.338Z,22.43
2022-09-02T06:25:08.125Z,22.41
2022-09-02T06:26:07.719Z,22.43
2022-09-02T06:27:07.347Z,22.40
2022-09-02T06:28:07.578Z,22.40
2022-09-02T06:29:07.898Z,22.43
2022-09-02T06:30:07.874Z,22.43
2022-09-02T06:31:07.862Z,22.43
2022-09-02T06:32:07.591Z,22.45
2022-09-02T06:33:07.390Z,22.46
2022-09-02T06:34:07.682Z,22.49
2022-09-02T06:35:07.171Z,22.5
2022-09-02T06:36:07.887Z,22.51
2022-09-02T06:37:07.303Z,22.54
2022-09-02T06:38:07.553Z,22.59
2022-09-02T06:39:07.438Z,22.60
2022-09-02T06:40:08.220Z,22.62
2022-09-02T06:41:07.740Z,22.63
2022-09-02T06:42:07.967Z,22.67
2022-09-02T06:43:07.410Z,22.69
2022-09-02T06:44:07.628Z,22.72
2022-09-02T06:45:07.889Z,22.74
2022-09-02T06:46:07.640Z,22.75
2022-09-02T06:47:07.547Z,22.78
2022-09-02T06:48:08.450Z,22.81
2022-09-02T06:49:07.709Z,22.83
2022-09-02T06:50:08.163Z,22.87
2022-09-02T06:51:07.885Z,22.88
2022-09-02T06:52:07.456Z,22.89
2022-09-02T06:53:08.217Z,22.89
2022-09-02T06:54:07.488Z,22.90
2022-09-02T06:55:07.697Z,22.91
2022-09-02T06:56:07.221Z,22.92
2022-09-02T06:57:07.587Z,22.88
2022-09-02T06:58:07.886Z,22.89
2022-09-02T06:59:07.464Z,22.93
2022-09-02T07:00:07.857Z,22.97
2022-09-02T07:01:07.495Z,23.00
2022-09-02T07:02:08.464Z,23.02
2022-09-02T07:03:07.605Z,23.04
2022-09-02T07:04:07.821Z,23.07
2022-09-02T07:05:07.178Z,23.10
2022-09-02T07:06:07.816Z,23.11
2022-09-02T07:07:07.262Z,23.13
2022-09-02T07:08:07.565Z,23.15
2022-09-02T07:09:07.519Z,23.14
2022-09-02T07:10:07.993Z,23.18
2022-09-02T07:11:07.481Z,23.20
2022-09-02T07:12:07.864Z,23.23
2022-09-02T07:13:07.742Z,23.33
2022-09-02T07:14:07.678Z,23.39
2022-09-02T07:15:07.334Z,23.43
2022-09-02T07:16:07.763Z,23.45
2022-09-02T07:17:07.642Z,23.49
2022-09-02T07:18:07.352Z,23.5
2022-09-02T07:19:13.222Z,23.50
2022-09-02T07:20:07.966Z,23.54
2022-09-02T07:21:07.521Z,23.58
2022-09-02T07:22:07.560Z,23.62
2022-09-02T07:23:07.178Z,23.65
2022-09-02T07:24:07.712Z,23.71
2022-09-02T07:25:07.551Z,23.79
2022-09-02T07:26:07.228Z,23.82
2022-09-02T07:27:07.689Z,23.83
2022-09-02T07:28:07.461Z,23.84
2022-09-02T07:29:07.819Z,23.88
2022-09-02T07:30:07.615Z,23.93
2022-09-02T07:31:15.304Z,23.97
2022-09-02T07:32:07.901Z,24.01
2022-09-02T07:33:15.519Z,24.05
2022-09-02T07:34:07.301Z,24.10
2022-09-02T07:35:07.886Z,24.19
2022-09-02T07:36:11.098Z,24.24
2022-09-02T07:37:10.708Z,24.28
2022-09-02T07:38:07.659Z,24.34
2022-09-02T07:39:07.311Z,24.40
2022-09-02T07:40:07.516Z,24.40
2022-09-02T07:41:07.672Z,24.44
2022-09-02T07:42:14.572Z,24.46
2022-09-02T07:43:07.442Z,24.49
2022-09-02T07:44:07.986Z,24.52
2022-09-02T07:45:07.423Z,24.56
2022-09-02T07:46:08.278Z,24.60
2022-09-02T07:47:08.228Z,24.62
2022-09-02T07:48:07.572Z,24.64
2022-09-02T07:49:09.574Z,24.72
2022-09-02T07:50:17.041Z,24.76
2022-09-02T07:51:07.375Z,24.77
2022-09-02T07:52:07.848Z,24.79
2022-09-02T07:53:07.531Z,24.82
2022-09-02T07:54:07.632Z,24.84
2022-09-02T07:55:12.620Z,24.89
2022-09-02T07:56:07.609Z,24.91
2022-09-02T07:57:07.666Z,24.98
2022-09-02T07:58:07.338Z,25.05
2022-09-02T07:59:07.637Z,25.13
2022-09-02T08:00:07.701Z,25.16
2022-09-02T08:01:07.606Z,25.15
2022-09-02T08:02:07.158Z,25.20
2022-09-02T08:04:07.367Z,25.27
2022-09-02T08:05:07.919Z,25.29
2022-09-02T08:06:07.489Z,25.36
2022-09-02T08:07:07.330Z,25.39
2022-09-02T08:08:07.279Z,25.40
2022-09-02T08:09:08.072Z,25.45
2022-09-02T08:10:07.851Z,25.5
2022-09-02T08:11:07.530Z,25.49
2022-09-02T08:12:07.972Z,25.48
2022-09-02T08:13:07.476Z,25.5
2022-09-02T08:14:07.897Z,25.54
2022-09-02T08:15:07.561Z,25.55
2022-09-02T08:16:07.833Z,25.54
2022-09-02T08:17:08.181Z,25.53
2022-09-02T08:18:08.562Z,25.55
2022-09-02T08:19:07.823Z,25.61
2022-09-02T08:20:11.725Z,25.62
2022-09-02T08:21:07.823Z,25.66
2022-09-02T08:22:07.520Z,25.70
2022-09-02T08:23:11.578Z,25.73
2022-09-02T08:24:08.253Z,25.77
2022-09-02T08:25:07.952Z,25.80
2022-09-02T08:26:07.607Z,25.86
2022-09-02T08:27:07.583Z,25.90
2022-09-02T08:28:07.390Z,25.98
2022-09-02T08:29:08.019Z,26.04
2022-09-02T08:30:07.599Z,26.07
2022-09-02T08:31:07.529Z,26.12
2022-09-02T08:32:07.424Z,26.19
2022-09-02T08:33:07.503Z,26.21
2022-09-02T08:34:07.535Z,26.26
2022-09-02T08:35:07.832Z,26.26
2022-09-02T08:36:07.375Z,26.25
2022-09-02T08:37:07.901Z,26.26
2022-09-02T08:38:07.464Z,26.29
2022-09-02T08:39:07.982Z,26.33
2022-09-02T08:40:07.810Z,26.38
2022-09-02T08:41:07.281Z,26.40
2022-09-02T08:42:07.745Z,26.45
2022-09-02T08:43:07.148Z,26.46
2022-09-02T08:44:07.986Z,26.46
2022-09-02T08:45:07.630Z,26.5
2022-09-02T08:46:07.458Z,26.57
2022-09-02T08:47:07.765Z,26.59
2022-09-02T08:48:07.158Z,26.63
2022-09-02T08:49:07.675Z,26.69
2022-09-02T08:50:07.766Z,26.73
2022-09-02T08:51:07.455Z,26.76
2022-09-02T08:52:07.760Z,26.81
2022-09-02T08:53:07.854Z,26.89
2022-09-02T08:54:07.391Z,26.90
2022-09-02T08:55:07.802Z,26.89
2022-09-02T08:56:07.295Z,26.90
2022-09-02T08:57:07.687Z,26.95
2022-09-02T08:58:07.111Z,26.92
2022-09-02T08:59:07.577Z,26.98
2022-09-02T09:00:08.792Z,27
2022-09-02T09:01:07.819Z,27.01
2022-09-02T09:02:07.593Z,27.02
2022-09-02T09:03:07.594Z,27.04
2022-09-02T09:04:07.363Z,27.03
2022-09-02T09:05:08.270Z,27.02
2022-09-02T09:06:07.854Z,27.03
2022-09-02T09:07:07.589Z,27.01
2022-09-02T09:08:09.702Z,27.02
2022-09-02T09:09:07.352Z,27.05
2022-09-02T09:10:08.087Z,27.05
2022-09-02T09:11:07.442Z,27.08
2022-09-02T09:12:08.044Z,27.10
2022-09-02T09:13:07.846Z,27.14
2022-09-02T09:14:07.610Z,27.15
2022-09-02T09:15:07.677Z,27.21
2022-09-02T09:16:07.450Z,27.25
2022-09-02T09:17:08.198Z,27.34
2022-09-02T09:18:07.663Z,27.35
2022-09-02T09:19:08.819Z,27.36
2022-09-02T09:20:07.631Z,27.40
2022-09-02T09:21:08.184Z,27.55
2022-09-02T09:22:07.724Z,27.57
2022-09-02T09:23:07.203Z,27.54
2022-09-02T09:24:07.922Z,27.51
2022-09-02T09:25:07.430Z,27.51
2022-09-02T09:26:07.992Z,27.53
2022-09-02T09:27:07.550Z,27.54
2022-09-02T09:28:08.072Z,27.59
2022-09-02T09:29:07.765Z,27.59
2022-09-02T09:30:11.528Z,27.60
2022-09-02T09:31:07.082Z,27.67
2022-09-02T09:32:07.673Z,27.75
2022-09-02T09:33:07.212Z,27.76
2022-09-02T09:34:07.859Z,27.81
2022-09-02T09:35:07.809Z,27.82
2022-09-02T09:36:07.488Z,27.81
2022-09-02T09:37:07.788Z,27.82
2022-09-02T09:38:07.330Z,27.85
2022-09-02T09:39:07.587Z,27.84
2022-09-02T09:40:08.051Z,27.92
2022-09-02T09:41:07.684Z,27.89
2022-09-02T09:42:07.645Z,27.89
2022-09-02T09:43:14.152Z,27.93
2022-09-02T09:44:07.630Z,27.94
2022-09-02T09:45:07.511Z,27.95
2022-09-02T09:46:07.627Z,28.00
2022-09-02T09:47:07.675Z,28.02
2022-09-02T09:48:07.632Z,27.93
2022-09-02T09:49:07.557Z,27.87
2022-09-02T09:50:07.642Z,27.86
2022-09-02T09:51:07.677Z,27.87
2022-09-02T09:52:07.295Z,27.89
2022-09-02T09:53:07.706Z,27.92
2022-09-02T09:54:07.301Z,27.89
2022-09-02T09:55:07.935Z,27.93
2022-09-02T09:56:16.052Z,27.98
2022-09-02T09:57:07.588Z,28.00
2022-09-02T09:58:07.708Z,28.02
2022-09-02T09:59:07.152Z,28.02
2022-09-02T10:00:08.614Z,27.99
2022-09-02T10:01:07.432Z,28.00
2022-09-02T10:02:08.220Z,28.01
2022-09-02T10:03:07.724Z,28.02
2022-09-02T10:04:20.647Z,28.05
2022-09-02T10:05:07.648Z,28.07
2022-09-02T10:06:07.437Z,28.10
2022-09-02T10:07:07.866Z,28.05
2022-09-02T10:08:13.125Z,28.06
2022-09-02T10:09:07.622Z,28.06
2022-09-02T10:10:07.679Z,28.09
2022-09-02T10:11:07.549Z,28.10
2022-09-02T10:12:08.157Z,28.11
2022-09-02T10:13:07.872Z,28.10
2022-09-02T10:14:07.532Z,28.13
2022-09-02T10:15:08.397Z,28.15
2022-09-02T10:16:07.612Z,28.18
2022-09-02T10:17:07.807Z,28.21
2022-09-02T10:18:07.808Z,28.25
2022-09-02T10:19:07.384Z,28.28
2022-09-02T10:20:08.071Z,28.36
2022-09-02T10:21:15.570Z,28.38
2022-09-02T10:22:07.743Z,28.40
2022-09-02T10:23:07.654Z,28.40
2022-09-02T10:24:07.520Z,28.40
2022-09-02T10:25:07.372Z,28.45
2022-09-02T10:26:07.737Z,28.52
2022-09-02T10:27:07.057Z,28.57
2022-09-02T10:28:07.648Z,28.60
2022-09-02T10:29:07.165Z,28.64
2022-09-02T10:30:08.193Z,28.65
2022-09-02T10:31:08.093Z,28.68
2022-09-02T10:32:07.856Z,28.73
2022-09-02T10:33:07.479Z,28.83
2022-09-02T10:34:07.164Z,28.88
2022-09-02T10:35:07.646Z,28.95
2022-09-02T10:36:07.274Z,28.96
2022-09-02T10:37:07.637Z,28.97
2022-09-02T10:38:08.139Z,29.06
2022-09-02T10:39:07.561Z,29.06
2022-09-02T10:40:08.161Z,29.04
2022-09-02T10:41:08.068Z,29.04
2022-09-02T10:42:07.826Z,29.10
2022-09-02T10:43:07.652Z,29.16
2022-09-02T10:44:07.454Z,29.23
2022-09-02T10:45:08.159Z,29.27
2022-09-02T10:46:08.169Z,29.26
2022-09-02T10:47:07.854Z,29.27
2022-09-02T10:48:07.518Z,29.29
2022-09-02T10:49:08.103Z,29.31
2022-09-02T10:50:07.583Z,29.35
2022-09-02T10:51:07.590Z,29.29
2022-09-02T10:52:07.539Z,29.29
2022-09-02T10:53:09.520Z,29.29
2022-09-02T10:54:07.466Z,29.29
2022-09-02T10:55:07.941Z,29.33
2022-09-02T10:56:07.376Z,29.32
2022-09-02T10:57:07.520Z,29.29
2022-09-02T10:58:08.735Z,29.32
2022-09-02T10:59:08.032Z,29.42
2022-09-02T11:00:08.479Z,29.44
2022-09-02T11:01:07.569Z,29.46
2022-09-02T11:02:10.465Z,29.48
2022-09-02T11:03:07.634Z,29.51
2022-09-02T11:04:10.571Z,29.52
2022-09-02T11:05:08.174Z,29.49
2022-09-02T11:06:07.789Z,29.45
2022-09-02T11:07:07.614Z,29.47
2022-09-02T11:08:07.358Z,29.45
2022-09-02T11:09:07.841Z,29.52
2022-09-02T11:10:07.722Z,29.54
2022-09-02T11:11:07.470Z,29.54
2022-09-02T11:12:07.205Z,29.55
2022-09-02T11:13:07.886Z,29.57
2022-09-02T11:14:07.644Z,29.60
2022-09-02T11:15:07.533Z,29.66
2022-09-02T11:16:07.584Z,29.71
2022-09-02T11:17:13.449Z,29.81
2022-09-02T11:18:07.671Z,29.90
2022-09-02T11:19:07.391Z,29.88
2022-09-02T11:20:08.105Z,29.89
2022-09-02T11:21:07.975Z,29.87
2022-09-02T11:22:07.870Z,29.91
2022-09-02T11:23:07.132Z,29.93
2022-09-02T11:24:07.933Z,29.89
2022-09-02T11:25:07.744Z,29.92
2022-09-02T11:26:07.641Z,29.90
2022-09-02T11:27:25.503Z,29.93
2022-09-02T11:28:07.907Z,29.92
2022-09-02T11:29:07.485Z,29.91
2022-09-02T11:30:07.481Z,29.91
2022-09-02T11:31:07.521Z,29.94
2022-09-02T11:32:07.259Z,29.96
2022-09-02T11:33:07.761Z,30.01
2022-09-02T11:34:07.610Z,30.02
2022-09-02T11:35:07.769Z,30.07
2022-09-02T11:36:07.199Z,30.12
2022-09-02T11:37:07.624Z,30.15
2022-09-02T11:38:07.665Z,30.25
2022-09-02T11:39:07.129Z,30.28
2022-09-02T11:40:30.593Z,30.32
2022-09-02T11:41:37.154Z,30.31
2022-09-02T11:42:07.379Z,30.30
2022-09-02T11:43:08.030Z,30.29
2022-09-02T11:44:07.870Z,30.29
2022-09-02T11:45:07.572Z,30.31
2022-09-02T11:46:07.405Z,30.34
2022-09-02T11:47:07.247Z,30.37
2022-09-02T11:48:07.918Z,30.37
2022-09-02T11:49:08.456Z,30.39
2022-09-02T11:50:07.908Z,30.45
2022-09-02T11:51:07.255Z,30.48
2022-09-02T11:52:07.516Z,30.48
2022-09-02T11:53:07.630Z,30.48
2022-09-02T11:54:06.978Z,30.51
2022-09-02T11:55:07.895Z,30.50
2022-09-02T11:56:07.479Z,30.54
2022-09-02T11:57:07.631Z,30.57
2022-09-02T11:58:07.324Z,30.54
2022-09-02T11:59:07.610Z,30.52
2022-09-02T12:00:07.871Z,30.5
2022-09-02T12:01:08.295Z,30.52
2022-09-02T12:02:07.822Z,30.52
2022-09-02T12:03:12.209Z,30.47
2022-09-02T12:04:55.933Z,30.46
2022-09-02T12:05:08.817Z,30.45
2022-09-02T12:06:07.803Z,30.45
2022-09-02T12:07:12.581Z,30.5
2022-09-02T12:08:07.202Z,30.50
2022-09-02T12:09:12.540Z,30.54
2022-09-02T12:10:08.014Z,30.57
2022-09-02T12:11:12.565Z,30.56
2022-09-02T12:12:07.701Z,30.59
2022-09-02T12:13:08.078Z,30.63
2022-09-02T12:14:08.194Z,30.65
2022-09-02T12:15:12.744Z,30.75
2022-09-02T12:16:07.554Z,30.77
2022-09-02T12:17:07.951Z,30.80
2022-09-02T12:18:07.245Z,30.86
2022-09-02T12:19:07.925Z,30.92
2022-09-02T12:20:07.393Z,30.99
2022-09-02T12:21:07.996Z,31.04
2022-09-02T12:22:07.905Z,30.98
2022-09-02T12:23:07.311Z,30.94
2022-09-02T12:24:07.452Z,30.96
2022-09-02T12:25:07.833Z,30.98
2022-09-02T12:26:07.747Z,31.01
2022-09-02T12:27:07.763Z,31.05
2022-09-02T12:28:07.428Z,31.11
2022-09-02T12:29:07.695Z,31.16
2022-09-02T12:30:07.942Z,31.31
2022-09-02T12:31:07.990Z,31.42
2022-09-02T12:32:08.165Z,31.42
2022-09-02T12:33:07.533Z,31.42
2022-09-02T12:34:07.825Z,31.37
2022-09-02T12:35:07.766Z,31.40
2022-09-02T12:36:07.483Z,31.40
2022-09-02T12:37:07.683Z,31.42
2022-09-02T12:38:07.442Z,31.39
2022-09-02T12:39:21.879Z,31.37
2022-09-02T12:40:07.530Z,31.29
2022-09-02T12:41:07.908Z,31.26
2022-09-02T12:42:07.314Z,31.27
2022-09-02T12:43:07.565Z,31.24
2022-09-02T12:44:07.944Z,31.22
2022-09-02T12:45:08.058Z,31.18
2022-09-02T12:46:07.653Z,31.13
2022-09-02T12:47:07.129Z,31.15
2022-09-02T12:48:07.469Z,31.15
2022-09-02T12:49:07.242Z,31.17
2022-09-02T12:50:07.755Z,31.18
2022-09-02T12:51:07.588Z,31.24
2022-09-02T12:52:07.132Z,31.29
2022-09-02T12:53:07.428Z,31.34
2022-09-02T12:54:07.687Z,31.39
2022-09-02T12:55:08.000Z,31.36